createdAt,value
2018-01-21T00:00:11.468Z,80.10
2018-01-21T00:02:39.187Z,80.00
2018-01-21T00:05:06.943Z,80.10
2018-01-21T00:07:35.130Z,80.10
2018-01-21T00:10:05.074Z,80.10
2018-01-21T00:12:32.830Z,80.10
2018-01-21T00:15:00.538Z,80.50
2018-01-21T00:17:28.215Z,80.20
2018-01-21T00:19:55.982Z,80.40
2018-01-21T00:22:35.565Z,80.10
2018-01-21T00:25:03.246Z,79.80
2018-01-21T00:27:31.752Z,80.30
2018-01-21T00:29:59.485Z,80.20
2018-01-21T00:32:27.921Z,80.10
2018-01-21T00:34:55.666Z,80.00
2018-01-21T00:37:23.372Z,80.00
2018-01-21T00:39:51.197Z,80.00
2018-01-21T00:42:19.017Z,80.00
2018-01-21T00:44:47.487Z,80.00
2018-01-21T00:47:15.748Z,79.90
2018-01-21T00:49:43.831Z,79.70
2018-01-21T00:52:12.327Z,79.70
2018-01-21T00:54:41.017Z,79.80
2018-01-21T00:57:09.489Z,79.90
2018-01-21T00:59:38.194Z,79.90
2018-01-21T01:02:06.206Z,79.90
2018-01-21T01:04:33.914Z,79.90
2018-01-21T01:07:02.543Z,80.00
2018-01-21T01:09:30.337Z,79.80
2018-01-21T01:11:58.238Z,79.90
2018-01-21T01:14:26.275Z,80.70
2018-01-21T01:16:54.065Z,80.80
2018-01-21T01:19:21.815Z,80.30
2018-01-21T01:21:49.694Z,79.70
2018-01-21T01:24:18.257Z,79.80
2018-01-21T01:26:46.003Z,79.80
2018-01-21T01:29:13.825Z,80.30
2018-01-21T01:31:41.534Z,80.20
2018-01-21T01:34:09.230Z,80.20
2018-01-21T01:36:36.900Z,80.30
2018-01-21T01:39:04.685Z,80.30
2018-01-21T01:41:32.586Z,80.30
2018-01-21T01:44:00.625Z,80.30
2018-01-21T01:46:29.189Z,80.50
2018-01-21T01:48:57.690Z,80.60
2018-01-21T01:51:25.401Z,80.50
2018-01-21T01:53:53.878Z,80.20
2018-01-21T01:56:22.335Z,80.20
2018-01-21T01:58:50.033Z,80.20
2018-01-21T02:01:18.517Z,80.10
2018-01-21T02:03:46.985Z,80.20
2018-01-21T02:06:15.470Z,80.50
2018-01-21T02:08:43.916Z,80.80
2018-01-21T02:11:11.653Z,80.80
2018-01-21T02:13:39.310Z,81.10
2018-01-21T02:16:07.015Z,80.90
2018-01-21T02:18:34.697Z,80.70
2018-01-21T02:21:03.205Z,80.60
2018-01-21T02:23:30.984Z,80.40
2018-01-21T02:25:58.654Z,80.30
2018-01-21T02:28:26.321Z,80.30
2018-01-21T02:30:54.015Z,80.30
2018-01-21T02:33:22.481Z,80.60
2018-01-21T02:35:50.234Z,80.50
2018-01-21T02:38:17.970Z,80.60
2018-01-21T02:40:45.653Z,80.70
2018-01-21T02:43:13.390Z,80.60
2018-01-21T02:45:41.077Z,80.60
2018-01-21T02:48:08.839Z,80.80
2018-01-21T02:50:36.534Z,80.80
2018-01-21T02:53:05.004Z,80.50
2018-01-21T02:55:32.699Z,80.50
2018-01-21T02:58:00.417Z,80.60
2018-01-21T03:00:28.094Z,80.50
2018-01-21T03:02:56.621Z,80.40
2018-01-21T03:05:24.287Z,80.30
2018-01-21T03:07:51.996Z,80.50
2018-01-21T03:10:20.442Z,81.00
2018-01-21T03:12:48.121Z,80.90
2018-01-21T03:15:15.836Z,81.00
2018-01-21T03:17:43.554Z,81.40
2018-01-21T03:20:11.274Z,81.30
2018-01-21T03:22:38.959Z,81.20
2018-01-21T03:25:06.629Z,81.20
2018-01-21T03:27:34.355Z,81.60
2018-01-21T03:30:02.022Z,81.60
2018-01-21T03:32:29.783Z,81.20
2018-01-21T03:34:57.533Z,81.30
2018-01-21T03:37:25.270Z,81.40
2018-01-21T03:39:53.697Z,81.20
2018-01-21T03:42:21.398Z,81.20
2018-01-21T03:44:49.837Z,81.60
2018-01-21T03:47:17.554Z,81.50
2018-01-21T03:49:45.985Z,82.20
2018-01-21T03:52:13.665Z,82.20
2018-01-21T03:54:41.433Z,82.20
2018-01-21T03:57:09.157Z,81.70
2018-01-21T03:59:36.848Z,81.40
2018-01-21T04:02:04.556Z,80.80
2018-01-21T04:04:32.253Z,81.10
2018-01-21T04:06:59.938Z,81.30
2018-01-21T04:09:27.653Z,81.60
2018-01-21T04:11:55.320Z,81.90
2018-01-21T04:14:23.077Z,82.00
2018-01-21T04:16:50.802Z,82.00
2018-01-21T04:19:19.290Z,81.90
2018-01-21T04:21:47.729Z,81.60
2018-01-21T04:24:15.493Z,81.60
2018-01-21T04:26:43.167Z,82.20
2018-01-21T04:29:10.849Z,82.60
2018-01-21T04:31:39.334Z,82.80
2018-01-21T04:34:07.776Z,82.70
2018-01-21T04:36:35.514Z,82.60
2018-01-21T04:39:03.233Z,82.80
2018-01-21T04:41:31.988Z,82.60
2018-01-21T04:43:59.714Z,82.50
2018-01-21T04:46:27.432Z,82.30
2018-01-21T04:48:55.095Z,82.40
2018-01-21T04:51:22.777Z,82.20
2018-01-21T04:53:51.265Z,82.60
2018-01-21T04:56:19.693Z,82.80
2018-01-21T04:58:47.383Z,82.70
2018-01-21T05:01:15.141Z,82.70
2018-01-21T05:03:42.869Z,83.00
2018-01-21T05:06:10.529Z,83.50
2018-01-21T05:08:38.213Z,83.70
2018-01-21T05:11:05.926Z,84.10
2018-01-21T05:13:33.627Z,83.90
2018-01-21T05:16:01.311Z,83.80
2018-01-21T05:18:29.073Z,83.80
2018-01-21T05:20:56.745Z,83.70
2018-01-21T05:23:25.260Z,83.90
2018-01-21T05:25:52.925Z,83.80
2018-01-21T05:28:20.611Z,83.80
2018-01-21T05:30:48.315Z,83.70
2018-01-21T05:33:16.778Z,83.60
2018-01-21T05:35:44.523Z,83.60
2018-01-21T05:38:12.198Z,83.50
2018-01-21T05:40:39.998Z,83.70
2018-01-21T05:43:07.681Z,84.00
2018-01-21T05:45:35.427Z,83.90
2018-01-21T05:48:03.155Z,84.00
2018-01-21T05:50:30.862Z,84.30
2018-01-21T05:52:58.531Z,83.90
2018-01-21T05:55:26.253Z,84.10
2018-01-21T05:57:54.701Z,83.80
2018-01-21T06:00:22.414Z,83.80
2018-01-21T06:02:50.138Z,83.80
2018-01-21T06:05:17.850Z,83.80
2018-01-21T06:07:45.553Z,84.00
2018-01-21T06:10:13.286Z,84.00
2018-01-21T06:12:40.968Z,84.10
2018-01-21T06:15:08.709Z,84.20
2018-01-21T06:17:36.417Z,84.30
2018-01-21T06:20:04.171Z,84.40
2018-01-21T06:22:31.906Z,84.50
2018-01-21T06:24:59.609Z,84.70
2018-01-21T06:27:27.274Z,85.10
2018-01-21T06:29:55.018Z,85.00
2018-01-21T06:32:22.806Z,85.00
2018-01-21T06:34:51.261Z,85.20
2018-01-21T06:37:18.977Z,85.20
2018-01-21T06:39:46.709Z,84.30
2018-01-21T06:42:15.170Z,84.50
2018-01-21T06:44:42.883Z,84.50
2018-01-21T06:47:10.575Z,84.90
2018-01-21T06:49:38.289Z,85.00
2018-01-21T06:52:06.773Z,85.10
2018-01-21T06:54:34.495Z,85.00
2018-01-21T06:57:02.206Z,85.10
2018-01-21T06:59:29.901Z,85.70
2018-01-21T07:01:57.678Z,85.20
2018-01-21T07:04:25.404Z,85.20
2018-01-21T07:06:53.142Z,85.30
2018-01-21T07:09:21.611Z,85.20
2018-01-21T07:11:50.101Z,85.00
2018-01-21T07:14:18.555Z,85.10
2018-01-21T07:16:47.019Z,85.50
2018-01-21T07:19:14.737Z,85.40
2018-01-21T07:21:43.267Z,86.10
2018-01-21T07:24:11.071Z,86.10
2018-01-21T07:26:40.538Z,85.90
2018-01-21T07:29:08.383Z,85.80
2018-01-21T07:31:36.209Z,85.90
2018-01-21T07:34:04.254Z,86.10
2018-01-21T07:36:34.698Z,86.10
2018-01-21T07:39:02.888Z,86.00
2018-01-21T07:41:31.216Z,86.20
2018-01-21T07:44:01.595Z,86.00
2018-01-21T07:46:32.661Z,85.90
2018-01-21T07:49:00.462Z,85.90
2018-01-21T07:51:29.778Z,86.00
2018-01-21T07:54:05.026Z,85.80
2018-01-21T07:56:32.790Z,85.70
2018-01-21T07:59:10.305Z,86.20
2018-01-21T08:01:37.994Z,86.20
2018-01-21T08:04:05.718Z,86.60
2018-01-21T08:06:33.437Z,86.20
2018-01-21T08:09:01.173Z,86.00
2018-01-21T08:11:28.919Z,86.00
2018-01-21T08:13:56.632Z,86.20
2018-01-21T08:16:25.129Z,86.60
2018-01-21T08:18:53.638Z,86.50
2018-01-21T08:21:21.438Z,86.40
2018-01-21T08:23:49.160Z,86.50
2018-01-21T08:26:17.003Z,86.40
2018-01-21T08:28:45.531Z,86.50
2018-01-21T08:31:13.154Z,86.50
2018-01-21T08:33:46.417Z,86.50
2018-01-21T08:36:19.606Z,86.40
2018-01-21T08:38:53.021Z,86.60
2018-01-21T08:41:27.008Z,86.50
2018-01-21T08:43:54.616Z,86.50
2018-01-21T08:46:22.279Z,86.30
2018-01-21T08:48:50.165Z,86.50
2018-01-21T08:51:17.884Z,86.50
2018-01-21T08:53:46.241Z,86.80
2018-01-21T08:56:14.625Z,86.60
2018-01-21T08:58:42.995Z,86.60
2018-01-21T09:01:10.613Z,86.60
2018-01-21T09:03:38.408Z,86.70
2018-01-21T09:06:06.054Z,87.10
2018-01-21T09:08:33.748Z,87.10
2018-01-21T09:11:01.443Z,87.30
2018-01-21T09:13:29.135Z,87.20
2018-01-21T09:15:56.913Z,87.30
2018-01-21T09:18:24.574Z,87.40
2018-01-21T09:20:52.214Z,87.30
2018-01-21T09:23:19.953Z,87.20
2018-01-21T09:25:47.610Z,87.10
2018-01-21T09:28:15.284Z,87.30
2018-01-21T09:30:42.934Z,87.20
2018-01-21T09:33:10.570Z,87.40
2018-01-21T09:35:38.236Z,87.50
2018-01-21T09:38:07.007Z,87.20
2018-01-21T09:40:35.523Z,87.40
2018-01-21T09:43:03.166Z,87.40
2018-01-21T09:45:31.571Z,87.20
2018-01-21T09:47:59.340Z,86.70
2018-01-21T09:50:26.989Z,86.50
2018-01-21T09:52:54.628Z,86.30
2018-01-21T09:55:22.993Z,86.40
2018-01-21T09:57:51.396Z,86.20
2018-01-21T10:00:19.029Z,86.10
2018-01-21T10:02:46.697Z,85.90
2018-01-21T10:05:15.109Z,85.80
2018-01-21T10:07:42.744Z,85.80
2018-01-21T10:10:11.215Z,86.00
2018-01-21T10:12:39.611Z,86.10
2018-01-21T10:15:07.213Z,86.00
2018-01-21T10:17:34.858Z,86.50
2018-01-21T10:20:02.621Z,85.60
2018-01-21T10:22:30.264Z,85.80
2018-01-21T10:24:57.830Z,85.60
2018-01-21T10:27:25.522Z,86.10
2018-01-21T10:29:53.348Z,86.10
2018-01-21T10:32:20.985Z,86.30
2018-01-21T10:34:49.341Z,86.80
2018-01-21T10:37:16.960Z,86.80
2018-01-21T10:39:44.558Z,86.70
2018-01-21T10:42:12.130Z,86.30
2018-01-21T10:44:39.793Z,86.40
2018-01-21T10:47:08.167Z,86.80
2018-01-21T10:49:35.798Z,86.80
2018-01-21T10:52:03.513Z,86.70
2018-01-21T10:54:31.113Z,86.90
2018-01-21T10:56:58.729Z,87.60
2018-01-21T10:59:27.075Z,86.80
2018-01-21T11:01:54.828Z,86.80
2018-01-21T11:04:22.417Z,86.90
2018-01-21T11:06:50.836Z,86.80
2018-01-21T11:09:18.434Z,86.70
2018-01-21T11:11:46.090Z,86.70
2018-01-21T11:14:13.678Z,87.10
2018-01-21T11:16:41.261Z,87.20
2018-01-21T11:19:08.942Z,87.50
2018-01-21T11:21:36.578Z,87.40
2018-01-21T11:24:04.159Z,87.30
2018-01-21T11:26:31.770Z,87.00
2018-01-21T11:29:00.187Z,87.30
2018-01-21T11:31:27.785Z,87.20
2018-01-21T11:33:55.461Z,87.60
2018-01-21T11:36:23.066Z,87.60
2018-01-21T11:38:50.688Z,88.00
2018-01-21T11:41:18.309Z,87.90
2018-01-21T11:43:45.914Z,87.80
2018-01-21T11:46:14.300Z,88.00
2018-01-21T11:48:42.645Z,88.40
2018-01-21T11:51:10.409Z,88.40
2018-01-21T11:53:38.017Z,88.30
2018-01-21T11:56:05.620Z,88.40
2018-01-21T11:58:33.243Z,87.70
2018-01-21T12:01:01.050Z,87.80
2018-01-21T12:03:28.686Z,87.90
2018-01-21T12:05:56.304Z,88.30
2018-01-21T12:08:24.673Z,88.90
2018-01-21T12:10:53.184Z,89.00
2018-01-21T12:13:20.784Z,88.80
2018-01-21T12:15:48.422Z,89.00
2018-01-21T12:18:16.024Z,89.00
2018-01-21T12:20:43.803Z,88.90
2018-01-21T12:23:11.431Z,89.10
2018-01-21T12:25:39.010Z,88.90
2018-01-21T12:28:06.642Z,89.00
2018-01-21T12:30:34.229Z,88.90
2018-01-21T12:33:02.638Z,89.20
2018-01-21T12:35:30.427Z,89.20
2018-01-21T12:37:58.045Z,89.10
2018-01-21T12:40:26.387Z,88.90
2018-01-21T12:42:53.997Z,88.80
2018-01-21T12:45:21.668Z,89.10
2018-01-21T12:47:49.391Z,89.40
2018-01-21T12:50:17.039Z,89.60
2018-01-21T12:52:45.841Z,89.90
2018-01-21T12:55:14.245Z,90.00
2018-01-21T12:57:41.983Z,89.90
2018-01-21T13:00:10.390Z,90.10
2018-01-21T13:02:38.042Z,90.10
2018-01-21T13:05:06.401Z,90.20
2018-01-21T13:07:34.808Z,90.20
2018-01-21T13:10:02.438Z,90.20
2018-01-21T13:12:30.219Z,90.10
2018-01-21T13:14:57.950Z,90.10
2018-01-21T13:17:25.577Z,90.20
2018-01-21T13:19:53.217Z,90.20
2018-01-21T13:22:20.834Z,90.20
2018-01-21T13:24:48.629Z,90.20
2018-01-21T13:27:17.022Z,90.30
2018-01-21T13:29:44.685Z,90.30
2018-01-21T13:32:12.290Z,91.20
2018-01-21T13:34:40.006Z,91.70
2018-01-21T13:37:07.647Z,91.70
2018-01-21T13:39:36.158Z,91.40
2018-01-21T13:42:03.794Z,91.40
2018-01-21T13:44:31.405Z,91.20
2018-01-21T13:46:59.137Z,91.10
2018-01-21T13:49:26.746Z,91.10
2018-01-21T13:51:54.338Z,91.10
2018-01-21T13:54:21.949Z,91.00
2018-01-21T13:56:49.640Z,90.90
2018-01-21T13:59:17.293Z,91.00
2018-01-21T14:01:44.950Z,91.10
2018-01-21T14:04:12.670Z,91.10
2018-01-21T14:06:40.378Z,91.10
2018-01-21T14:09:08.150Z,91.20
2018-01-21T14:11:36.558Z,90.60
2018-01-21T14:14:04.300Z,90.60
2018-01-21T14:16:31.957Z,90.50
2018-01-21T14:19:00.333Z,90.40
2018-01-21T14:21:28.713Z,90.40
2018-01-21T14:23:57.077Z,90.40
2018-01-21T14:26:24.696Z,90.40
2018-01-21T14:28:52.312Z,90.50
2018-01-21T14:31:20.705Z,90.70
2018-01-21T14:33:48.355Z,90.80
2018-01-21T14:36:16.775Z,91.00
2018-01-21T14:38:44.380Z,90.80
2018-01-21T14:41:12.767Z,90.80
2018-01-21T14:43:41.306Z,90.80
2018-01-21T14:46:09.028Z,90.80
2018-01-21T14:48:37.065Z,91.00
2018-01-21T14:51:04.731Z,91.10
2018-01-21T14:53:33.152Z,91.00
2018-01-21T14:56:00.771Z,91.00
2018-01-21T14:58:29.217Z,91.00
2018-01-21T15:00:57.003Z,90.90
2018-01-21T15:03:24.744Z,91.00
2018-01-21T15:05:52.381Z,90.90
2018-01-21T15:11:44.308Z,91.10
2018-01-21T15:14:12.024Z,91.20
2018-01-21T15:16:39.622Z,91.40
2018-01-21T15:19:08.003Z,91.20
2018-01-21T15:21:35.633Z,91.20
2018-01-21T15:24:03.258Z,91.30
2018-01-21T15:26:30.872Z,91.30
2018-01-21T15:28:59.264Z,91.40
2018-01-21T15:31:26.919Z,91.60
2018-01-21T15:33:55.402Z,91.40
2018-01-21T15:36:22.992Z,91.40
2018-01-21T15:38:50.719Z,91.30
2018-01-21T15:41:18.353Z,91.40
2018-01-21T15:43:46.008Z,91.40
2018-01-21T15:46:13.617Z,91.50
2018-01-21T15:48:41.261Z,91.50
2018-01-21T15:51:09.618Z,91.50
2018-01-21T15:53:38.017Z,91.40
2018-01-21T15:56:06.362Z,91.30
2018-01-21T15:58:34.057Z,91.30
2018-01-21T16:01:02.459Z,91.50
2018-01-21T16:03:30.196Z,91.50
2018-01-21T16:05:57.824Z,91.60
2018-01-21T16:08:25.461Z,91.60
2018-01-21T16:10:53.148Z,91.50
2018-01-21T16:13:20.777Z,91.60
2018-01-21T16:15:48.414Z,91.60
2018-01-21T16:18:16.054Z,91.60
2018-01-21T16:20:44.417Z,91.70
2018-01-21T16:23:12.159Z,91.70
2018-01-21T16:25:40.807Z,91.90
2018-01-21T16:28:08.476Z,91.90
2018-01-21T16:30:36.157Z,91.90
2018-01-21T16:33:03.953Z,91.90
2018-01-21T16:35:32.393Z,91.90
2018-01-21T16:38:11.682Z,91.90
2018-01-21T16:40:40.201Z,92.20
2018-01-21T16:43:08.476Z,92.00
2018-01-21T16:45:36.065Z,92.00
2018-01-21T16:48:03.687Z,92.00
2018-01-21T16:50:31.261Z,92.10
2018-01-21T16:52:58.838Z,92.20
2018-01-21T16:55:26.465Z,92.20
2018-01-21T17:01:11.741Z,92.40
2018-01-21T17:03:39.318Z,92.50
2018-01-21T17:06:06.979Z,92.50
2018-01-21T17:08:34.564Z,92.60
2018-01-21T17:11:02.165Z,92.60
2018-01-21T17:13:30.582Z,92.60
2018-01-21T17:15:58.198Z,92.60
2018-01-21T17:18:25.818Z,92.70
2018-01-21T17:20:53.420Z,92.70
2018-01-21T17:23:21.813Z,92.70
2018-01-21T17:25:49.396Z,92.70
2018-01-21T17:28:16.987Z,92.70
2018-01-21T17:30:44.626Z,92.60
2018-01-21T17:33:12.218Z,92.70
2018-01-21T17:35:39.834Z,92.60
2018-01-21T17:38:07.512Z,92.70
2018-01-21T17:40:35.098Z,92.90
2018-01-21T17:43:02.706Z,92.60
2018-01-21T17:45:30.300Z,92.60
2018-01-21T17:47:57.905Z,92.50
2018-01-21T17:50:26.245Z,92.60
2018-01-21T17:52:53.882Z,92.60
2018-01-21T17:55:21.457Z,92.70
2018-01-21T17:57:49.079Z,92.70
2018-01-21T18:00:16.732Z,92.80
2018-01-21T18:02:44.314Z,92.90
2018-01-21T18:05:11.930Z,92.90
2018-01-21T18:07:40.305Z,93.00
2018-01-21T18:10:08.724Z,92.90
2018-01-21T18:12:36.311Z,92.90
2018-01-21T18:15:03.914Z,93.00
2018-01-21T18:17:31.526Z,93.10
2018-01-21T18:19:59.118Z,93.10
2018-01-21T18:22:27.556Z,93.20
2018-01-21T18:24:55.141Z,93.20
2018-01-21T18:27:22.713Z,93.30
2018-01-21T18:29:51.159Z,93.30
2018-01-21T18:32:18.850Z,93.30
2018-01-21T18:34:46.460Z,93.40
2018-01-21T18:37:14.304Z,93.50
2018-01-21T18:39:41.950Z,93.50
2018-01-21T18:42:10.335Z,93.60
2018-01-21T18:44:38.681Z,93.60
2018-01-21T18:47:06.291Z,93.60
2018-01-21T18:49:34.022Z,93.60
2018-01-21T18:52:02.398Z,93.70
2018-01-21T18:54:30.814Z,93.60
2018-01-21T18:56:58.437Z,93.60
2018-01-21T18:59:26.785Z,93.70
2018-01-21T19:01:54.402Z,93.70
2018-01-21T19:04:22.054Z,93.70
2018-01-21T19:06:49.641Z,93.70
2018-01-21T19:09:17.272Z,93.70
2018-01-21T19:11:44.915Z,93.80
2018-01-21T19:14:13.319Z,93.80
2018-01-21T19:16:41.022Z,93.80
2018-01-21T19:19:08.637Z,93.80
2018-01-21T19:21:36.301Z,93.80
2018-01-21T19:24:03.921Z,93.80
2018-01-21T19:26:31.607Z,93.80
2018-01-21T19:29:00.008Z,93.80
2018-01-21T19:31:27.690Z,93.80
2018-01-21T19:33:55.324Z,93.80
2018-01-21T19:36:22.982Z,93.90
2018-01-21T19:38:51.690Z,93.80
2018-01-21T19:41:22.929Z,93.80
2018-01-21T19:43:51.404Z,93.80
2018-01-21T19:46:19.166Z,93.80
2018-01-21T19:48:46.833Z,93.80
2018-01-21T19:51:14.526Z,93.90
2018-01-21T19:53:42.246Z,94.00
2018-01-21T19:56:09.914Z,94.00
2018-01-21T19:58:37.527Z,94.10
2018-01-21T20:01:05.142Z,94.10
2018-01-21T20:03:32.798Z,94.10
2018-01-21T20:06:00.467Z,94.20
2018-01-21T20:08:28.137Z,94.10
2018-01-21T20:10:55.745Z,94.20
2018-01-21T20:13:24.129Z,94.10
2018-01-21T20:15:51.802Z,94.10
2018-01-21T20:18:19.460Z,94.20
2018-01-21T20:20:47.106Z,94.10
2018-01-21T20:23:15.446Z,94.20
2018-01-21T20:25:43.156Z,94.10
2018-01-21T20:28:10.775Z,94.10
2018-01-21T20:30:38.386Z,94.10
2018-01-21T20:33:05.968Z,94.10
2018-01-21T20:35:33.592Z,94.10
2018-01-21T20:38:01.208Z,94.10
2018-01-21T20:40:28.904Z,94.10
2018-01-21T20:42:57.371Z,94.10
2018-01-21T20:45:25.750Z,94.10
2018-01-21T20:47:53.409Z,94.10
2018-01-21T20:50:21.042Z,94.10
2018-01-21T20:52:48.633Z,94.20
2018-01-21T20:55:17.031Z,94.20
2018-01-21T20:57:45.395Z,94.20
2018-01-21T21:00:13.864Z,94.30
2018-01-21T21:02:41.495Z,94.20
2018-01-21T21:05:09.169Z,94.20
2018-01-21T21:07:36.899Z,94.30
2018-01-21T21:10:04.565Z,94.30
2018-01-21T21:12:32.241Z,94.30
2018-01-21T21:15:00.106Z,94.30
2018-01-21T21:17:27.902Z,94.20
2018-01-21T21:19:55.528Z,94.20
2018-01-21T21:22:23.272Z,94.10
2018-01-21T21:24:51.809Z,94.40
2018-01-21T21:27:20.225Z,94.10
2018-01-21T21:29:47.833Z,94.10
2018-01-21T21:32:15.530Z,94.00
2018-01-21T21:34:43.129Z,93.90
2018-01-21T21:37:10.718Z,93.80
2018-01-21T21:39:38.368Z,93.80
2018-01-21T21:42:06.031Z,93.80
2018-01-21T21:44:33.701Z,93.80
2018-01-21T21:47:01.340Z,93.80
2018-01-21T21:49:28.965Z,93.80
2018-01-21T21:51:56.622Z,94.20
2018-01-21T21:54:24.291Z,94.30
2018-01-21T21:56:51.964Z,94.30
2018-01-21T21:59:19.613Z,94.20
2018-01-21T22:01:47.313Z,94.20
2018-01-21T22:04:14.889Z,94.30
2018-01-21T22:06:42.491Z,94.30
2018-01-21T22:09:10.123Z,94.20
2018-01-21T22:11:38.465Z,94.30
2018-01-21T22:14:06.086Z,94.20
2018-01-21T22:16:33.672Z,94.30
2018-01-21T22:19:01.285Z,94.40
2018-01-21T22:21:29.694Z,94.30
2018-01-21T22:23:57.285Z,94.30
2018-01-21T22:26:24.889Z,94.20
2018-01-21T22:28:52.505Z,94.30
2018-01-21T22:31:20.120Z,94.30
2018-01-21T22:33:47.743Z,94.30
2018-01-21T22:36:15.389Z,94.40
2018-01-21T22:38:43.016Z,94.50
2018-01-21T22:41:10.781Z,94.50
2018-01-21T22:43:38.451Z,94.40
2018-01-21T22:46:06.037Z,94.30
2018-01-21T22:48:33.627Z,94.20
2018-01-21T22:51:02.015Z,94.00
2018-01-21T22:53:29.626Z,94.00
2018-01-21T22:55:57.238Z,93.90
2018-01-21T22:58:24.868Z,93.80
2018-01-21T23:00:52.520Z,93.60
2018-01-21T23:03:20.225Z,93.60
2018-01-21T23:05:47.820Z,93.50
2018-01-21T23:08:15.451Z,93.60
2018-01-21T23:10:43.049Z,93.60
2018-01-21T23:13:10.661Z,93.60
2018-01-21T23:15:38.251Z,93.50
2018-01-21T23:18:05.885Z,93.70
2018-01-21T23:20:45.236Z,93.60
2018-01-21T23:23:12.971Z,93.50
2018-01-21T23:25:41.402Z,93.70
2018-01-21T23:28:09.107Z,93.70
2018-01-21T23:30:37.470Z,93.70
2018-01-21T23:33:05.709Z,93.70
2018-01-21T23:35:33.344Z,93.70
2018-01-21T23:38:01.157Z,93.70
2018-01-21T23:40:28.893Z,93.70
2018-01-21T23:42:56.716Z,93.80
2018-01-21T23:45:25.511Z,93.90
2018-01-21T23:47:53.235Z,93.80
2018-01-21T23:50:21.279Z,93.70
2018-01-21T23:52:49.521Z,93.70
2018-01-21T23:55:17.182Z,93.70
2018-01-21T23:57:45.168Z,93.80
